• Join FlightAware (Why Join?)
  • Login
  • US Flag 
12:06AM EDT


 

Airport Tracker/Info


-or-


 

Live Flight TrackerFlight Track Log ✈ ASH20 ✈ 14-May-2013 ✈ PHOG / OGG - PHNL

Flight Track Log - Related Links

Times and Time Zones

All times are in EDT time to prevent confusion due to time zone crossing. See the ASH20 flight status page for this flight to view local times or setup timezone preferences in your user account.

Time Position Orientation Groundspeed Altitude Reporting Facility
EDT Latitude Longitude Course Direction KTS MPH feet Rate Location/Type
12:19PM 20.9167 -156.4167 255° West 160 184 1,500  Level Honolulu Center
12:20PM 20.9667 -156.4333 343° North 240 276 4,000 2,820 Climbing Honolulu Center
12:21PM 21.0000 -156.5000 298° West 270 311 7,200 2,580 Climbing Honolulu Center
12:22PM 21.0000 -156.5833 270° West 290 334 9,200 2,580 Climbing Honolulu Center
12:23PM 21.0000 -156.6667 270° West 300 345 12,400 2,700 Climbing Honolulu Center
12:24PM 20.9833 -156.7500 258° West 310 357 14,600 1,800 Climbing Honolulu Center
12:25PM 20.7693 -156.8896 255° West  Level FlightAware Approximate
12:25PM 20.9833 -156.8500 270° West 320 368 16,000  Level Honolulu Center
12:26PM 20.9667 -156.9500 260° West 340 391 16,000 -60 Level Honolulu Center
12:27PM 20.9667 -157.0500 270° West 350 403 15,900 -60 Descending Honolulu Center
12:28PM 20.9500 -157.1500 260° West 350 403 15,900  Level Honolulu Center
12:29PM 20.9500 -157.2667 270° West 360 414 15,900 -1,320 Level Honolulu Center
12:30PM 20.9500 -157.3667 270° West 350 403 13,300 -2,340 Descending Honolulu Center
12:31PM 20.9833 -157.4667 290° West 320 368 11,300 -2,040 Descending Honolulu Center
12:32PM 21.0167 -157.5500 293° West 300 345 9,300 -2,040 Descending Honolulu Center
12:33PM 21.0333 -157.6333 282° West 290 334 7,300 -2,040 Descending Honolulu Center
12:34PM 21.0667 -157.7000 298° West 280 322 5,300 -2,040 Descending Honolulu Center
12:35PM 21.1000 -157.7833 293° West 270 311 3,300 -1,260 Descending Honolulu Center
12:36PM 21.1167 -157.8500 285° West 220 253 2,800 -900 Descending Honolulu Center
12:37PM 21.1667 -157.8833 328° Northwest 200 230 1,500 -660 Descending Honolulu Center
12:38PM 21.2167 -157.9167 328° Northwest 210 242 1,500  Level Honolulu Center